KDXR/DXR METAR and TAF weather

Enter ICAO airport designator
Station Type Date Time Source
KDXR METAR 2019/10/21 21:53 UTC NOAA

KDXR 212153Z 00000KT 10SM CLR 14/07 A3010 RMK AO2 SLP194 T01440067


Station Type Date Time Source
KDXR Decoded METAR 2019/10/21 21:53 UTC NOAA

DANBURY MUNICIPAL AIRPORT, CT, United States (KDXR) 41-22N 073-29W 139M
Oct 21, 2019 - 05:53 PM EDT / 2019.10.21 2153 UTC
Wind: Calm:0
Visibility: 10 mile(s):0
Sky conditions: clear
Temperature: 57.9 F (14.4 C)
Dew Point: 44.1 F (6.7 C)
Relative Humidity: 59%
Pressure (altimeter): 30.1 in. Hg (1019 hPa)
ob: KDXR 212153Z 00000KT 10SM CLR 14/07 A3010 RMK AO2 SLP194 T01440067
cycle: 22

Station Type Date Time Source
KDXR TAF UTC NOAA

Error!

Example: see airport list